Time;durP1;ratioP1;P1;durP2;ratioP2;P2;SDS_P1;SDS_P2;PMS_P1;PMS_P2;Temp;Humidity;BMP_temperature;BMP_pressure;BME280_temperature;BME280_humidity;BME280_pressure;Samples;Min_cycle;Max_cycle;Signal;HPM_P1;HPM_P2
2021/08/23 00:00:21;;;;;;;10.03;9.43;;;20.10;99.90;;;;;;4989460;28;20417;-92
2021/08/23 00:02:49;;;;;;;11.50;10.60;;;19.20;99.90;;;;;;4993306;28;20411;-90
2021/08/23 00:05:15;;;;;;;13.10;11.90;;;20.20;99.90;;;;;;4996611;28;20174;-90
2021/08/23 00:07:44;;;;;;;12.80;11.80;;;19.20;99.90;;;;;;5008055;28;20432;-91
2021/08/23 00:10:11;;;;;;;12.77;11.67;;;20.10;99.90;;;;;;4986780;28;20174;-92
2021/08/23 00:12:36;;;;;;;12.03;11.03;;;18.90;99.90;;;;;;5011233;28;20425;-91
2021/08/23 00:15:04;;;;;;;13.50;12.37;;;19.10;99.90;;;;;;4986849;28;20421;-91
2021/08/23 00:17:30;;;;;;;12.47;11.43;;;18.80;99.90;;;;;;4985585;28;20173;-89
2021/08/23 00:19:56;;;;;;;13.07;12.07;;;19.90;99.90;;;;;;4984875;28;20465;-91
2021/08/23 00:24:49;;;;;;;12.43;11.57;;;20.50;99.90;;;;;;5004464;28;20204;-91
2021/08/23 00:27:15;;;;;;;10.73;9.90;;;19.30;99.90;;;;;;4984351;28;20177;-91
2021/08/23 00:29:41;;;;;;;11.60;10.30;;;20.30;99.90;;;;;;4986538;28;20942;-90
2021/08/23 00:32:06;;;;;;;11.30;10.43;;;18.60;99.90;;;;;;4984455;28;20475;-89
2021/08/23 00:34:32;;;;;;;10.93;10.10;;;18.90;99.90;;;;;;4985034;28;20185;-90
2021/08/23 00:36:58;;;;;;;11.40;10.40;;;20.20;99.90;;;;;;4985318;28;20182;-91
2021/08/23 00:39:24;;;;;;;11.27;10.50;;;19.50;99.90;;;;;;4986823;28;20181;-90
2021/08/23 00:41:59;;;;;;;10.80;10.07;;;19.10;99.90;;;;;;4985791;28;20170;-90
2021/08/23 00:44:26;;;;;;;11.43;10.63;;;18.60;99.90;;;;;;5002772;28;20173;-91
2021/08/23 00:46:52;;;;;;;10.43;9.53;;;18.70;99.90;;;;;;4990441;28;20421;-90
2021/08/23 00:49:18;;;;;;;12.10;11.20;;;20.60;99.90;;;;;;5006092;28;20244;-91
2021/08/23 00:51:44;;;;;;;11.47;10.57;;;18.70;99.90;;;;;;5004480;28;20204;-90
2021/08/23 00:54:09;;;;;;;11.63;10.63;;;18.90;99.90;;;;;;5004580;28;20166;-91
2021/08/23 00:56:36;;;;;;;12.00;11.20;;;19.70;99.90;;;;;;4985076;28;20413;-91
2021/08/23 00:59:09;;;;;;;12.03;11.13;;;19.80;99.90;;;;;;4983592;28;20268;-89
2021/08/23 01:02:02;;;;;;;12.63;11.60;;;20.60;99.90;;;;;;4988224;28;20420;-90
2021/08/23 01:04:35;;;;;;;10.63;9.83;;;19.70;99.90;;;;;;4987619;28;20424;-90
2021/08/23 01:07:02;;;;;;;11.23;10.33;;;19.10;99.90;;;;;;4987701;28;20412;-91
2021/08/23 01:09:32;;;;;;;11.60;10.73;;;18.90;99.90;;;;;;5008203;28;20409;-92
2021/08/23 01:11:59;;;;;;;10.27;9.47;;;17.50;99.90;;;;;;4985748;28;20468;-91
2021/08/23 01:14:25;;;;;;;10.67;9.63;;;20.30;99.90;;;;;;4986832;28;20442;-91
2021/08/23 01:16:52;;;;;;;9.90;9.20;;;19.80;99.90;;;;;;4988557;28;20416;-90
2021/08/23 01:19:23;;;;;;;10.40;9.60;;;18.30;99.90;;;;;;4990844;28;20454;-91
2021/08/23 01:21:55;;;;;;;11.20;10.40;;;20.30;99.90;;;;;;4991388;28;20417;-90
2021/08/23 01:24:22;;;;;;;10.87;9.83;;;18.60;99.90;;;;;;4989857;28;20778;-91
2021/08/23 01:26:52;;;;;;;10.43;9.50;;;17.00;99.90;;;;;;4988794;28;20431;-89
2021/08/23 01:29:26;;;;;;;10.40;9.70;;;20.00;99.90;;;;;;4989728;28;20963;-91
2021/08/23 01:32:16;;;;;;;11.07;10.17;;;20.10;99.90;;;;;;4986699;28;21066;-89
2021/08/23 01:34:44;;;;;;;10.30;9.70;;;18.20;99.90;;;;;;4991094;28;20805;-90
2021/08/23 01:37:14;;;;;;;10.50;9.70;;;18.80;99.90;;;;;;4991501;28;20429;-90
2021/08/23 01:39:45;;;;;;;10.43;9.47;;;21.00;99.90;;;;;;4992013;28;20435;-89
2021/08/23 01:42:14;;;;;;;10.40;9.60;;;21.00;99.90;;;;;;4991292;28;20431;-91
2021/08/23 01:44:41;;;;;;;10.77;10.07;;;18.50;99.90;;;;;;5006193;28;20428;-91
2021/08/23 01:47:07;;;;;;;11.03;10.37;;;20.40;99.90;;;;;;5004571;28;20416;-89
2021/08/23 01:49:37;;;;;;;11.23;10.13;;;19.30;99.90;;;;;;4989082;28;20427;-90
2021/08/23 01:52:03;;;;;;;12.33;11.23;;;19.50;99.90;;;;;;5004628;28;20493;-90
2021/08/23 01:54:29;;;;;;;11.93;10.73;;;17.40;99.90;;;;;;4986705;28;20491;-91
2021/08/23 01:56:54;;;;;;;11.00;10.10;;;19.10;99.90;;;;;;4987968;28;20420;-90
2021/08/23 01:59:20;;;;;;;11.60;10.90;;;19.90;99.90;;;;;;5005533;28;20166;-91
2021/08/23 02:01:47;;;;;;;11.60;10.70;;;18.20;99.90;;;;;;4988535;28;20282;-90
2021/08/23 02:04:15;;;;;;;12.90;11.00;;;17.50;99.90;;;;;;4990964;28;20176;-90
2021/08/23 02:06:44;;;;;;;10.87;10.17;;;18.10;99.90;;;;;;5003006;28;20434;-91
2021/08/23 02:09:09;;;;;;;10.33;9.53;;;19.40;99.90;;;;;;4985670;28;20424;-90
2021/08/23 02:11:35;;;;;;;10.23;9.53;;;18.60;99.90;;;;;;4986158;28;20484;-90
2021/08/23 02:14:02;;;;;;;13.87;11.30;;;18.00;99.90;;;;;;5003931;28;20233;-90
2021/08/23 02:16:42;;;;;;;;;;;;;;;;;;;;;
2021/08/23 02:19:09;;;;;;;12.73;11.00;;;17.70;99.90;;;;;;5009399;28;20456;-90
2021/08/23 02:21:51;;;;;;;10.63;9.87;;;19.10;99.90;;;;;;4992332;28;20408;-91
2021/08/23 02:24:27;;;;;;;;;;;;;;;;;;;;;
2021/08/23 02:26:55;;;;;;;11.73;9.60;;;18.60;99.90;;;;;;5006688;28;20469;-90
2021/08/23 02:29:21;;;;;;;11.87;10.67;;;18.30;99.90;;;;;;4990956;28;20423;-90
2021/08/23 02:31:55;;;;;;;11.20;10.10;;;17.30;99.90;;;;;;5011836;28;20487;-91
2021/08/23 02:34:20;;;;;;;10.50;9.30;;;20.00;99.90;;;;;;4990207;28;20409;-91
2021/08/23 02:36:52;;;;;;;10.87;9.93;;;20.00;99.90;;;;;;4990650;28;20505;-90
2021/08/23 02:39:36;;;;;;;;;;;;;;;;;;;;;
2021/08/23 02:42:12;;;;;;;11.53;10.73;;;19.60;99.90;;;;;;4999896;28;20492;-89
2021/08/23 02:44:55;;;;;;;12.40;10.30;;;19.30;99.90;;;;;;4993614;28;20428;-90
2021/08/23 02:47:24;;;;;;;11.57;10.77;;;16.80;99.90;;;;;;5010706;28;20274;-90
2021/08/23 02:49:58;;;;;;;12.00;10.90;;;18.10;99.90;;;;;;4991538;28;20427;-91
2021/08/23 02:52:27;;;;;;;12.13;11.20;;;18.10;99.90;;;;;;5020164;28;20518;-90
2021/08/23 02:54:56;;;;;;;11.87;10.97;;;18.60;99.90;;;;;;4997865;28;20451;-90
2021/08/23 02:57:24;;;;;;;12.23;11.37;;;17.90;99.90;;;;;;5001550;28;20511;-90
2021/08/23 02:59:51;;;;;;;11.20;10.27;;;17.30;99.90;;;;;;4999711;28;20404;-90
2021/08/23 03:02:17;;;;;;;11.70;10.60;;;19.40;99.90;;;;;;5001253;28;20448;-89
2021/08/23 03:04:44;;;;;;;13.00;11.77;;;17.80;99.90;;;;;;5014158;28;20420;-90
2021/08/23 03:07:10;;;;;;;11.73;10.93;;;18.30;99.90;;;;;;4996836;28;20511;-91
2021/08/23 03:09:41;;;;;;;12.80;11.70;;;18.80;99.90;;;;;;4998618;28;20429;-90
2021/08/23 03:12:08;;;;;;;13.17;12.00;;;19.60;99.90;;;;;;5014286;28;20212;-91
2021/08/23 03:14:41;;;;;;;12.40;11.30;;;18.50;99.90;;;;;;4997341;28;20519;-90
2021/08/23 03:17:09;;;;;;;12.37;11.37;;;17.10;99.90;;;;;;4995509;28;20417;-90
2021/08/23 03:19:41;;;;;;;14.63;12.20;;;19.50;99.90;;;;;;4990633;28;20464;-90
2021/08/23 03:22:11;;;;;;;17.50;15.60;;;18.30;99.90;;;;;;4962999;28;20417;-89
2021/08/23 03:24:40;;;;;;;16.33;14.60;;;18.60;99.90;;;;;;4961985;28;20421;-89
2021/08/23 03:27:06;;;;;;;13.90;12.70;;;20.70;99.90;;;;;;4976151;28;20413;-90
2021/08/23 03:29:34;;;;;;;12.83;11.83;;;18.30;99.90;;;;;;4976738;28;20444;-91
2021/08/23 03:32:00;;;;;;;19.63;14.30;;;18.50;99.90;;;;;;4974830;28;20475;-89
2021/08/23 03:34:28;;;;;;;14.73;13.50;;;18.30;99.90;;;;;;4977625;28;20460;-91
2021/08/23 03:37:03;;;;;;;12.80;11.80;;;18.20;99.90;;;;;;4977203;28;20190;-90
2021/08/23 03:39:31;;;;;;;12.40;11.30;;;19.10;99.90;;;;;;4975060;28;20404;-91
2021/08/23 03:42:00;;;;;;;16.30;10.93;;;17.90;99.90;;;;;;4974530;28;20468;-91
2021/08/23 03:44:39;;;;;;;;;;;;;;;;;;;;;
2021/08/23 03:47:18;;;;;;;13.93;12.63;;;19.20;99.90;;;;;;4995159;28;20445;-89
2021/08/23 03:49:46;;;;;;;14.67;13.23;;;19.90;99.90;;;;;;4948296;28;20401;-90
2021/08/23 03:52:26;;;;;;;14.70;13.40;;;18.70;99.90;;;;;;4996408;28;20477;-91
2021/08/23 03:54:52;;;;;;;15.83;14.27;;;18.00;99.90;;;;;;4949956;28;20432;-90
2021/08/23 03:57:17;;;;;;;15.57;14.27;;;18.10;99.90;;;;;;4961312;28;20422;-89
2021/08/23 03:59:51;;;;;;;16.60;15.00;;;20.30;99.90;;;;;;4974447;28;20178;-90
2021/08/23 04:02:22;;;;;;;12.80;11.70;;;19.10;99.90;;;;;;4974765;28;20174;-91
2021/08/23 04:04:52;;;;;;;18.50;16.90;;;18.10;99.90;;;;;;4975519;28;20417;-90
2021/08/23 04:07:22;;;;;;;14.47;12.87;;;18.50;99.90;;;;;;4992339;28;20426;-92
2021/08/23 04:09:49;;;;;;;13.50;12.30;;;18.10;99.90;;;;;;4960324;28;20460;-88
2021/08/23 04:12:15;;;;;;;12.80;11.90;;;18.30;99.90;;;;;;4959714;28;20456;-91
2021/08/23 04:14:44;;;;;;;13.53;12.50;;;17.90;99.90;;;;;;4976817;28;20413;-91
2021/08/23 04:17:20;;;;;;;12.70;11.70;;;16.80;99.90;;;;;;4960617;28;20454;-89
2021/08/23 04:19:50;;;;;;;14.10;12.80;;;18.10;99.90;;;;;;4984673;28;20584;-91
2021/08/23 04:22:31;;;;;;;13.50;12.20;;;17.70;99.90;;;;;;4997229;28;20448;-91
2021/08/23 04:25:04;;;;;;;13.80;12.80;;;18.30;99.90;;;;;;4971980;28;20433;-90
2021/08/23 04:27:31;;;;;;;14.97;13.43;;;20.10;99.90;;;;;;4985858;28;20428;-90
2021/08/23 04:29:59;;;;;;;12.60;11.30;;;20.20;99.90;;;;;;4992284;28;20420;-91
2021/08/23 04:32:26;;;;;;;13.30;12.30;;;18.20;99.90;;;;;;4995748;28;20476;-89
2021/08/23 04:35:04;;;;;;;14.00;13.00;;;18.20;99.90;;;;;;4980365;28;20429;-90
2021/08/23 04:37:58;;;;;;;18.63;16.67;;;19.30;99.90;;;;;;4997780;28;20432;-90
2021/08/23 04:40:28;;;;;;;15.90;14.50;;;19.00;99.90;;;;;;4997158;28;20455;-91
2021/08/23 04:42:56;;;;;;;18.53;16.37;;;19.60;99.90;;;;;;4995365;28;20425;-90
2021/08/23 04:45:30;;;;;;;16.57;15.20;;;18.00;99.90;;;;;;5013762;28;20424;-90
2021/08/23 04:48:09;;;;;;;14.93;13.53;;;18.80;99.90;;;;;;4998194;28;20434;-91
2021/08/23 04:50:42;;;;;;;13.77;12.57;;;18.40;99.90;;;;;;4995900;28;20452;-90
2021/08/23 04:53:09;;;;;;;13.70;12.70;;;18.20;99.90;;;;;;5014431;28;20432;-89
2021/08/23 04:55:44;;;;;;;13.17;11.97;;;19.90;99.90;;;;;;4980834;28;20404;-90
2021/08/23 04:58:29;;;;;;;;;;;;;;;;;;;;;
2021/08/23 05:00:56;;;;;;;18.03;13.10;;;21.50;99.90;;;;;;4982866;28;20452;-89
2021/08/23 05:03:23;;;;;;;14.27;12.97;;;17.20;99.90;;;;;;4997875;28;20417;-91
2021/08/23 05:06:01;;;;;;;16.13;14.73;;;18.50;99.90;;;;;;5014785;28;20510;-90
2021/08/23 05:08:27;;;;;;;20.70;17.67;;;19.30;99.90;;;;;;4995847;28;20463;-89
2021/08/23 05:11:01;;;;;;;23.00;18.30;;;18.40;99.90;;;;;;4981300;28;20476;-91
2021/08/23 05:13:55;;;;;;;27.63;22.90;;;18.20;99.90;;;;;;4996820;28;20499;-90
2021/08/23 05:16:24;;;;;;;31.40;24.27;;;19.50;99.90;;;;;;5014080;28;20439;-92
2021/08/23 05:18:53;;;;;;;29.77;25.47;;;19.00;99.90;;;;;;4997886;28;20476;-88
2021/08/23 05:21:21;;;;;;;32.10;26.47;;;19.00;99.90;;;;;;5040546;23;20504;-90
2021/08/23 05:23:56;;;;;;;32.23;28.73;;;18.20;99.90;;;;;;4952575;29;20455;-85
2021/08/23 05:26:27;;;;;;;34.40;28.87;;;18.60;99.90;;;;;;4996005;23;20474;-85
2021/08/23 05:28:58;;;;;;;35.70;31.00;;;18.80;99.90;;;;;;4966418;28;20440;-89
2021/08/23 05:31:25;;;;;;;39.63;31.13;;;18.40;99.90;;;;;;4988425;28;20452;-87
2021/08/23 05:33:57;;;;;;;37.03;30.73;;;18.50;99.90;;;;;;4975944;28;20421;-88
2021/08/23 05:36:41;;;;;;;36.33;30.03;;;19.90;99.90;;;;;;4990699;28;20421;-91
2021/08/23 05:39:07;;;;;;;38.30;29.03;;;18.60;99.90;;;;;;4980773;28;20900;-86
2021/08/23 05:41:33;;;;;;;36.03;30.07;;;20.50;99.90;;;;;;4965311;28;20418;-87
2021/08/23 05:43:59;;;;;;;33.63;29.97;;;18.50;99.90;;;;;;4967778;28;20641;-85
2021/08/23 05:46:53;;;;;;;37.97;28.67;;;18.90;99.90;;;;;;4966602;28;20410;-87
2021/08/23 05:49:29;;;;;;;34.17;27.83;;;19.80;99.90;;;;;;4966068;28;20260;-87
2021/08/23 05:51:54;;;;;;;36.00;29.50;;;18.70;99.90;;;;;;4969308;28;20491;-88
2021/08/23 05:54:34;;;;;;;31.37;27.90;;;18.80;99.90;;;;;;4986630;28;20409;-91
2021/08/23 05:57:02;;;;;;;31.53;28.17;;;18.90;99.90;;;;;;5037318;23;20244;-90
2021/08/23 05:59:45;;;;;;;32.67;28.20;;;18.90;99.90;;;;;;4966362;28;20417;-88
2021/08/23 06:02:11;;;;;;;31.40;26.87;;;17.20;99.90;;;;;;4971656;28;20455;-82
2021/08/23 06:04:57;;;;;;;;;;;;;;;;;;;;;
2021/08/23 06:07:24;;;;;;;28.43;25.43;;;18.90;99.90;;;;;;4982822;28;20266;-86
2021/08/23 06:09:49;;;;;;;28.20;25.30;;;21.40;99.90;;;;;;4971002;28;20437;-86
2021/08/23 06:12:17;;;;;;;29.47;24.00;;;19.30;99.90;;;;;;4986653;28;20472;-85
2021/08/23 06:14:46;;;;;;;25.33;22.37;;;18.00;99.90;;;;;;4989601;28;20170;-84
2021/08/23 06:17:24;;;;;;;24.13;21.73;;;20.70;99.90;;;;;;4973141;28;20417;-88
2021/08/23 06:19:57;;;;;;;27.90;23.50;;;19.40;98.90;;;;;;4974885;28;20433;-89
2021/08/23 06:22:23;;;;;;;24.63;22.20;;;20.70;99.90;;;;;;4991782;28;20455;-87
2021/08/23 06:24:55;;;;;;;24.30;21.80;;;19.30;99.90;;;;;;4976757;28;20421;-87
2021/08/23 06:27:37;;;;;;;21.50;19.30;;;17.80;98.80;;;;;;4994800;28;20304;-87
2021/08/23 06:30:11;;;;;;;24.30;21.80;;;21.90;99.90;;;;;;4972681;28;20428;-85
2021/08/23 06:32:36;;;;;;;24.10;21.70;;;19.60;97.50;;;;;;4975990;28;20476;-87
2021/08/23 06:35:12;;;;;;;24.17;21.77;;;21.90;99.90;;;;;;4992943;28;20416;-87
2021/08/23 06:37:45;;;;;;;26.57;23.77;;;20.10;97.80;;;;;;4978869;28;20170;-88
2021/08/23 06:40:11;;;;;;;24.53;22.07;;;22.20;97.90;;;;;;4962785;28;20893;-85
2021/08/23 06:42:47;;;;;;;24.97;22.50;;;20.00;97.50;;;;;;5141804;23;20585;-90
2021/08/23 06:45:19;;;;;;;24.70;22.30;;;19.60;97.00;;;;;;5015065;28;20476;-87
2021/08/23 06:47:44;;;;;;;26.13;23.43;;;22.30;99.70;;;;;;4981300;28;20428;-86
2021/08/23 06:50:10;;;;;;;24.93;22.50;;;19.90;96.30;;;;;;5017686;28;20405;-87
2021/08/23 06:52:40;;;;;;;25.00;22.00;;;19.70;96.70;;;;;;5001424;28;20220;-91
2021/08/23 06:55:15;;;;;;;21.23;19.30;;;21.80;98.80;;;;;;5002413;28;20422;-88
2021/08/23 06:57:41;;;;;;;22.90;20.37;;;19.90;95.40;;;;;;5002113;28;20404;-85
2021/08/23 07:00:25;;;;;;;22.77;20.57;;;22.30;98.70;;;;;;4983789;28;20439;-90
2021/08/23 07:03:02;;;;;;;23.33;21.13;;;19.60;98.60;;;;;;5018535;28;20243;-89
2021/08/23 07:05:28;;;;;;;26.57;21.10;;;19.40;97.40;;;;;;5001167;28;20405;-89
2021/08/23 07:07:55;;;;;;;24.50;21.10;;;20.40;99.60;;;;;;4999741;28;20460;-84
2021/08/23 07:10:24;;;;;;;21.83;19.63;;;19.40;99.20;;;;;;4993461;28;20225;-89
2021/08/23 07:13:09;;;;;;;22.57;20.17;;;19.30;99.60;;;;;;4980792;28;20461;-90
2021/08/23 07:15:38;;;;;;;23.60;21.07;;;19.70;98.90;;;;;;4962250;28;20493;-90
2021/08/23 07:18:06;;;;;;;24.50;21.90;;;21.10;99.90;;;;;;4960144;28;20417;-89
2021/08/23 07:20:34;;;;;;;24.97;22.27;;;19.60;99.20;;;;;;4977592;28;20433;-89
2021/08/23 07:22:59;;;;;;;24.73;22.23;;;21.40;99.90;;;;;;4992957;28;20413;-88
2021/08/23 07:25:29;;;;;;;23.83;21.53;;;21.20;99.90;;;;;;4993097;28;20528;-88
2021/08/23 07:28:15;;;;;;;23.37;20.27;;;18.70;99.90;;;;;;5006233;28;20169;-88
2021/08/23 07:31:03;;;;;;;23.33;20.90;;;19.80;99.90;;;;;;4982365;28;20416;-90
2021/08/23 07:33:30;;;;;;;23.73;19.87;;;19.00;99.90;;;;;;4990706;28;20787;-89
2021/08/23 07:36:02;;;;;;;24.00;21.50;;;18.70;99.90;;;;;;4955978;29;20427;-90
2021/08/23 07:38:30;;;;;;;19.17;17.37;;;18.90;99.90;;;;;;4962162;29;20444;-91
2021/08/23 07:40:56;;;;;;;20.20;18.30;;;19.10;99.90;;;;;;4943462;29;20521;-87
2021/08/23 07:43:21;;;;;;;19.90;17.97;;;19.00;99.90;;;;;;4950002;29;21033;-85
2021/08/23 07:45:51;;;;;;;15.40;14.00;;;19.30;99.90;;;;;;4948865;29;20189;-90
2021/08/23 07:48:26;;;;;;;62.87;34.40;;;18.90;99.40;;;;;;4971483;28;20177;-93
2021/08/23 07:51:03;;;;;;;18.10;16.33;;;18.50;99.90;;;;;;4988055;28;20464;-90
2021/08/23 07:53:28;;;;;;;82.00;73.90;;;20.60;99.80;;;;;;4988267;28;20476;-88
2021/08/23 07:55:57;;;;;;;31.80;28.63;;;21.50;99.90;;;;;;4984883;28;20421;-89
2021/08/23 07:58:22;;;;;;;22.87;20.80;;;20.80;99.90;;;;;;4968815;28;20178;-91
2021/08/23 08:00:48;;;;;;;16.10;14.60;;;18.20;97.10;;;;;;4951527;28;20437;-89
2021/08/23 08:03:17;;;;;;;15.20;13.90;;;19.50;97.70;;;;;;4987533;28;20194;-93
2021/08/23 08:05:43;;;;;;;15.40;14.20;;;21.70;97.50;;;;;;4955965;28;20199;-94
2021/08/23 08:08:09;;;;;;;17.77;14.67;;;21.80;99.90;;;;;;4968998;28;20425;-94
2021/08/23 08:10:35;;;;;;;16.43;15.07;;;18.80;96.20;;;;;;4969792;28;20174;-93
2021/08/23 08:13:06;;;;;;;15.33;13.83;;;21.00;97.20;;;;;;4969871;28;20513;-92
2021/08/23 08:15:44;;;;;;;15.73;14.43;;;19.20;95.60;;;;;;4987946;28;20418;-89
2021/08/23 08:18:19;;;;;;;16.30;15.00;;;20.40;97.80;;;;;;4972994;28;20436;-91
2021/08/23 08:20:45;;;;;;;16.60;14.93;;;19.80;96.70;;;;;;4990847;28;20409;-90
2021/08/23 08:23:16;;;;;;;16.00;14.50;;;18.90;96.80;;;;;;4972028;28;20473;-90
2021/08/23 08:25:48;;;;;;;19.23;17.60;;;19.30;97.10;;;;;;4954755;28;20433;-92
2021/08/23 08:28:24;;;;;;;19.43;17.63;;;19.20;95.50;;;;;;4989132;28;20425;-94
2021/08/23 08:30:50;;;;;;;14.73;13.23;;;19.20;95.20;;;;;;4957374;28;20472;-85
2021/08/23 08:33:20;;;;;;;16.53;14.93;;;21.80;98.50;;;;;;4993298;28;20812;-92
2021/08/23 08:36:00;;;;;;;19.00;17.40;;;21.20;95.90;;;;;;4976445;28;20433;-91
2021/08/23 08:38:29;;;;;;;16.23;14.73;;;19.80;94.40;;;;;;4971304;28;20447;-91
2021/08/23 08:40:58;;;;;;;15.73;14.50;;;22.10;96.70;;;;;;4982795;28;20502;-87
2021/08/23 08:43:24;;;;;;;18.30;16.70;;;19.60;94.30;;;;;;4960836;28;20500;-86
2021/08/23 08:46:00;;;;;;;12.27;11.27;;;19.70;93.50;;;;;;4963045;28;20517;-92
2021/08/23 08:48:29;;;;;;;12.30;11.40;;;20.60;93.80;;;;;;4979455;28;20425;-88
2021/08/23 08:50:55;;;;;;;14.63;13.47;;;19.90;93.40;;;;;;4983847;28;20476;-88
2021/08/23 08:53:22;;;;;;;13.53;12.53;;;22.50;92.50;;;;;;4970513;28;20456;-87
2021/08/23 08:56:04;;;;;;;13.30;12.10;;;23.10;93.10;;;;;;4806587;23;10002177;-89
2021/08/23 08:58:44;;;;;;;13.10;12.00;;;21.20;90.40;;;;;;4984048;28;20177;-85
2021/08/23 09:01:11;;;;;;;14.70;13.50;;;20.60;90.80;;;;;;4985697;28;20788;-85
2021/08/23 09:03:45;;;;;;;16.73;15.20;;;20.40;91.80;;;;;;4988800;28;20422;-89
2021/08/23 09:06:17;;;;;;;15.87;14.37;;;21.90;91.80;;;;;;4972012;28;20430;-88
2021/08/23 09:08:48;;;;;;;12.83;11.63;;;20.40;89.60;;;;;;4988552;28;20440;-88
2021/08/23 09:11:19;;;;;;;12.80;11.70;;;21.50;90.30;;;;;;4968831;28;20540;-87
2021/08/23 09:13:59;;;;;;;14.13;12.93;;;20.10;84.10;;;;;;4987585;28;20869;-87
2021/08/23 09:16:39;;;;;;;13.43;12.53;;;21.60;85.80;;;;;;4973639;28;20425;-85
2021/08/23 09:19:09;;;;;;;14.53;13.20;;;21.50;82.30;;;;;;4971677;28;20414;-88
2021/08/23 09:21:38;;;;;;;18.23;16.67;;;22.70;81.90;;;;;;4970734;28;20483;-85
2021/08/23 09:24:18;;;;;;;12.87;11.97;;;22.20;79.60;;;;;;4984354;28;20429;-90
2021/08/23 09:26:44;;;;;;;13.70;12.40;;;22.40;76.40;;;;;;4986677;28;20493;-84
2021/08/23 09:29:10;;;;;;;14.00;12.77;;;22.70;75.70;;;;;;4966257;28;20524;-90
2021/08/23 09:31:38;;;;;;;15.03;13.83;;;22.90;75.00;;;;;;4963532;28;20476;-87
2021/08/23 09:34:09;;;;;;;13.50;12.50;;;22.60;69.80;;;;;;4982288;28;20247;-86
2021/08/23 09:36:34;;;;;;;14.57;13.50;;;24.10;72.50;;;;;;4980847;28;20401;-87
2021/08/23 09:39:08;;;;;;;13.17;12.17;;;24.70;75.30;;;;;;4986714;28;20412;-88
2021/08/23 09:41:40;;;;;;;15.30;14.00;;;23.60;69.10;;;;;;4987897;28;20177;-92
2021/08/23 09:44:08;;;;;;;12.77;11.87;;;23.20;67.50;;;;;;4968470;28;20420;-90
2021/08/23 09:46:40;;;;;;;14.33;12.83;;;24.20;69.20;;;;;;4983135;28;20428;-91
2021/08/23 09:49:08;;;;;;;13.50;12.40;;;24.00;66.00;;;;;;4987818;28;20511;-89
2021/08/23 09:51:37;;;;;;;14.63;13.30;;;25.80;66.10;;;;;;4985880;28;20465;-87
2021/08/23 09:54:14;;;;;;;13.63;12.63;;;26.40;65.70;;;;;;4985520;28;20440;-91
2021/08/23 09:56:51;;;;;;;14.07;12.87;;;25.40;59.50;;;;;;4991759;28;20577;-92
2021/08/23 09:59:19;;;;;;;13.63;12.63;;;25.60;58.60;;;;;;4985579;28;20434;-92
2021/08/23 10:01:47;;;;;;;14.47;13.37;;;27.60;57.70;;;;;;5009851;28;20435;-90
2021/08/23 10:04:14;;;;;;;14.80;13.70;;;26.30;56.80;;;;;;4986889;28;20543;-90
2021/08/23 10:06:45;;;;;;;15.33;14.13;;;25.40;56.90;;;;;;5016585;28;20445;-87
2021/08/23 10:09:21;;;;;;;14.97;13.97;;;24.70;58.30;;;;;;5024340;28;20443;-90
2021/08/23 10:11:48;;;;;;;14.70;13.40;;;24.50;59.30;;;;;;5007286;28;20501;-91
2021/08/23 10:14:15;;;;;;;15.73;14.43;;;25.00;59.20;;;;;;5029049;28;20400;-91
2021/08/23 10:16:48;;;;;;;16.10;14.90;;;24.00;59.60;;;;;;5028749;28;20450;-87
2021/08/23 10:19:15;;;;;;;16.33;14.90;;;23.40;60.60;;;;;;5025390;28;20403;-92
2021/08/23 10:21:44;;;;;;;14.83;13.73;;;25.30;66.90;;;;;;5005956;28;20427;-87
2021/08/23 10:24:28;;;;;;;18.23;16.63;;;23.50;61.70;;;;;;5022551;28;20418;-87
2021/08/23 10:26:55;;;;;;;15.43;13.93;;;24.00;61.20;;;;;;5023621;28;20412;-89
2021/08/23 10:29:21;;;;;;;16.37;15.03;;;25.80;61.00;;;;;;5024422;28;20411;-86
2021/08/23 10:31:48;;;;;;;17.43;16.00;;;26.00;59.90;;;;;;5008994;28;20466;-87
2021/08/23 10:34:30;;;;;;;15.50;14.27;;;24.70;59.80;;;;;;5007730;28;20473;-92
2021/08/23 10:37:01;;;;;;;14.87;13.33;;;24.30;58.40;;;;;;5007780;28;20439;-89
2021/08/23 10:39:28;;;;;;;18.07;16.47;;;25.00;59.40;;;;;;5023015;28;20903;-88
2021/08/23 10:41:56;;;;;;;16.20;14.90;;;25.70;60.10;;;;;;5008630;28;20428;-89
2021/08/23 10:44:25;;;;;;;15.97;14.77;;;26.10;61.50;;;;;;5025283;28;20469;-88
2021/08/23 10:47:02;;;;;;;19.30;17.70;;;24.00;60.80;;;;;;5005588;28;20535;-88
2021/08/23 10:49:41;;;;;;;20.30;18.60;;;24.00;61.00;;;;;;5026264;28;20399;-89
2021/08/23 10:52:08;;;;;;;18.97;17.43;;;24.40;63.40;;;;;;5006115;28;20459;-87
2021/08/23 10:54:46;;;;;;;26.10;23.73;;;23.50;61.90;;;;;;5023014;28;20427;-92
2021/08/23 10:57:20;;;;;;;23.40;21.30;;;25.30;64.60;;;;;;5027451;28;20403;-92
2021/08/23 11:00:34;;;;;;;22.27;20.50;;;22.90;63.50;;;;;;5005985;28;20435;-89
2021/08/23 11:03:00;;;;;;;17.63;16.17;;;23.60;64.70;;;;;;4975737;28;20414;-90
2021/08/23 11:05:26;;;;;;;23.20;21.40;;;25.20;65.00;;;;;;4965263;28;20484;-93
2021/08/23 11:08:14;;;;;;;19.63;17.73;;;25.00;66.00;;;;;;4983362;28;20162;-92
2021/08/23 11:10:41;;;;;;;15.93;14.73;;;24.00;62.80;;;;;;4982461;28;20182;-91
2021/08/23 11:13:16;;;;;;;15.03;13.90;;;24.80;59.60;;;;;;4984882;28;20409;-92
2021/08/23 11:15:46;;;;;;;14.77;13.57;;;25.60;58.60;;;;;;4985429;28;20472;-90
2021/08/23 11:18:21;;;;;;;13.70;12.70;;;26.00;58.20;;;;;;4950795;28;20414;-89
2021/08/23 11:21:16;;;;;;;13.63;12.53;;;27.60;58.00;;;;;;4966035;28;20425;-89
2021/08/23 11:23:45;;;;;;;14.10;13.00;;;27.70;57.50;;;;;;4984948;28;20410;-87
2021/08/23 11:26:25;;;;;;;14.93;13.60;;;28.30;57.70;;;;;;4984587;28;20416;-92
2021/08/23 11:28:54;;;;;;;13.77;12.77;;;25.90;56.30;;;;;;4968276;28;20436;-88
2021/08/23 11:31:20;;;;;;;13.67;12.57;;;25.90;58.40;;;;;;4984257;28;20987;-88
2021/08/23 11:33:47;;;;;;;13.53;12.63;;;28.00;57.20;;;;;;4983403;28;20445;-90
2021/08/23 11:36:27;;;;;;;14.30;13.30;;;27.40;57.20;;;;;;4966338;28;20426;-91
2021/08/23 11:38:53;;;;;;;13.93;12.83;;;26.20;55.80;;;;;;4981871;28;20432;-86
2021/08/23 11:41:18;;;;;;;14.60;13.50;;;27.50;56.20;;;;;;4996834;28;20553;-90
2021/08/23 11:43:44;;;;;;;15.57;14.37;;;27.70;56.30;;;;;;4989788;28;20422;-90
2021/08/23 11:46:13;;;;;;;14.43;13.43;;;25.40;57.00;;;;;;5000478;28;20178;-91
2021/08/23 11:48:42;;;;;;;14.13;13.00;;;23.20;58.30;;;;;;4981765;28;20417;-86
2021/08/23 11:51:08;;;;;;;15.43;13.97;;;23.60;59.70;;;;;;4985292;28;20622;-91
2021/08/23 11:53:48;;;;;;;12.43;11.53;;;25.40;63.80;;;;;;4964884;28;20417;-93
2021/08/23 11:56:14;;;;;;;13.67;12.77;;;26.20;62.30;;;;;;4952212;28;20218;-90
2021/08/23 11:58:43;;;;;;;14.20;13.20;;;24.70;59.70;;;;;;4962622;28;20471;-90
2021/08/23 12:01:13;;;;;;;14.67;13.60;;;26.00;61.00;;;;;;4932022;29;20650;-90
2021/08/23 12:03:39;;;;;;;12.03;11.03;;;25.10;59.20;;;;;;4976421;28;20429;-91
2021/08/23 12:06:07;;;;;;;14.30;13.00;;;25.20;58.80;;;;;;4982707;28;20472;-91
2021/08/23 12:08:40;;;;;;;15.13;13.83;;;24.30;59.10;;;;;;4965490;28;20444;-91
2021/08/23 12:11:19;;;;;;;13.30;12.30;;;23.90;59.30;;;;;;4968596;28;20540;-92
2021/08/23 12:13:46;;;;;;;15.63;14.20;;;23.00;58.90;;;;;;4964379;28;20463;-85
2021/08/23 12:16:13;;;;;;;16.00;14.53;;;26.50;61.00;;;;;;4964579;28;20848;-88
2021/08/23 12:18:53;;;;;;;15.60;14.40;;;22.70;59.60;;;;;;4967641;28;20529;-88
2021/08/23 12:21:31;;;;;;;15.10;14.00;;;23.70;59.80;;;;;;4984893;28;20417;-90
2021/08/23 12:24:05;;;;;;;18.13;16.60;;;24.00;60.00;;;;;;4966742;28;20429;-89
2021/08/23 12:26:54;;;;;;;17.27;15.70;;;23.80;59.50;;;;;;4967075;28;20441;-89
2021/08/23 12:29:37;;;;;;;14.77;13.70;;;23.20;59.40;;;;;;4621680;28;9999999;-89
2021/08/23 12:32:11;;;;;;;13.83;12.73;;;24.30;59.30;;;;;;4981327;28;20198;-90
2021/08/23 12:34:50;;;;;;;13.10;12.20;;;24.70;58.90;;;;;;4984070;28;20904;-94
2021/08/23 12:37:30;;;;;;;13.60;12.60;;;24.70;58.10;;;;;;4966754;28;20451;-91
2021/08/23 12:40:00;;;;;;;14.77;13.60;;;26.00;61.20;;;;;;4966544;28;20433;-88
2021/08/23 12:42:36;;;;;;;13.90;12.90;;;24.10;59.50;;;;;;4965458;28;20541;-92
2021/08/23 12:45:07;;;;;;;15.07;13.97;;;23.00;57.90;;;;;;4964263;28;20406;-89
2021/08/23 12:47:32;;;;;;;15.00;14.00;;;25.10;62.70;;;;;;4963305;28;20411;-86
2021/08/23 12:49:58;;;;;;;15.40;14.10;;;24.50;61.00;;;;;;4963920;28;20940;-85
2021/08/23 12:52:24;;;;;;;14.23;13.30;;;24.30;61.80;;;;;;4962191;29;20659;-87
2021/08/23 12:54:51;;;;;;;14.53;13.50;;;22.30;61.00;;;;;;4950992;28;20217;-89
2021/08/23 12:57:28;;;;;;;;;;;;;;;;;;;;;